Latest Weather Observations for Delamere

IDD60801

Issued at 1:35 pm CST Wednesday 26 November 2014 (issued every 30 minutes, with the page automatically refreshed every 10 minutes)

About weather observations | Map of weather stations | Latest weather observations for NT | Other Formats
Station Details ID: 014949 Name: DELAMERE WEAPONS RANGE Lat: -15.74 Lon: 131.92 Height: 221.0 m
Data from the previous 72 hours. | See also: Recent months at Delamere
Date/Time
CST
Temp
°C
App
Temp
°C
Dew
Point
Rel
Hum
%
Delta-T
°C
Wind Press
QNH
hPa
Press
MSL
hPa
Rain
since 9 am
mm
Dir
 
Spd
km/h
Gust
km/h
Spd
kts
Gust
kts
26/01:30pm 32.7 41.7 32.2 97 0.4 ENE 15 26 8 14 1007.7 - 0.0
26/01:00pm 32.4 - 33.6 - - NE 15 20 8 11 1008.3 - 0.0
26/12:30pm 31.3 - - - - ENE 13 20 7 11 1008.7 - 0.0
26/12:00pm 31.6 - - - - ENE 11 19 6 10 1009.2 1007.5 0.0
26/11:30am 30.0 - - - - ENE 19 24 10 13 1009.8 - 0.0
26/11:00am 29.8 - - - - E 15 28 8 15 1010.2 - 0.0
26/10:30am 28.5 - - - - E 19 28 10 15 1010.6 - 0.0
26/10:00am 28.0 - - - - SSE 11 17 6 9 1010.9 - 0.0
26/09:30am 27.5 - - - - ESE 15 20 8 11 1010.9 - 0.0
26/09:07am 27.9 - - - - ESE 15 22 8 12 1010.8 - 0.0
26/09:00am 27.3 - - - - SE 13 22 7 12 1010.8 1009.0 27.8
26/08:30am 25.7 - - - - ESE 9 13 5 7 1010.6 - 27.8
26/08:00am 25.2 - - - - NNE 2 9 1 5 1010.7 - 27.8
26/07:53am 25.0 - - - - CALM 0 0 0 0 1010.7 - 27.8
26/07:30am 24.4 - - - - NE 7 11 4 6 1010.3 - 27.8
26/07:00am 24.1 - - - - NE 6 9 3 5 1009.9 - 27.8
26/06:30am 23.8 - - - - E 4 6 2 3 1009.5 - 27.8
26/06:00am 23.6 - - - - E 7 11 4 6 1009.2 1007.5 27.8
26/05:30am 23.6 - - - - E 4 7 2 4 1008.8 - 27.8
26/05:00am 23.7 - - - - CALM 0 0 0 0 1008.2 - 27.8
26/04:30am 23.6 - - - - E 7 11 4 6 1007.7 - 27.8
26/04:00am 23.6 - - - - CALM 0 9 0 5 1007.8 - 27.8
26/03:30am 23.9 - - - - CALM 0 0 0 0 1007.7 - 27.8
26/03:00am 23.9 - - - - SSW 7 9 4 5 1007.9 1006.1 27.8
26/02:30am 23.7 - - - - S 6 9 3 5 1008.3 - 27.8
26/02:00am 23.7 - - - - S 9 13 5 7 1008.3 - 27.8
26/01:30am 24.0 - - - - ENE 7 11 4 6 1008.4 - 27.8
26/01:00am 24.1 - - - - NE 7 11 4 6 1008.4 - 27.8
26/12:30am 24.1 - - - - NW 7 9 4 5 1008.5 - 27.8
26/12:00am 24.4 - - - - ESE 9 13 5 7 1008.8 1007.1 27.4
 
Date/Time
CST
Temp
°C
App
Temp
°C
Dew
Point
Rel
Hum
%
Delta-T
°C
Wind Press
QNH
hPa
Press
MSL
hPa
Rain
since 9 am
mm
Dir
 
Spd
km/h
Gust
km/h
Spd
kts
Gust
kts
25/11:30pm 24.5 - - - - E 7 11 4 6 1009.2 - 27.2
25/11:00pm 24.3 - - - - SE 9 13 5 7 1009.8 - 26.8
25/10:30pm 24.3 - - - - ESE 13 19 7 10 1010.4 - 26.4
25/10:00pm 24.4 - - - - ESE 19 28 10 15 1011.0 - 25.8
25/09:30pm 24.3 - - - - SSE 15 20 8 11 1010.6 - 25.4
25/09:00pm 24.1 - - - - SSE 17 20 9 11 1010.4 1008.6 25.0
25/08:30pm 24.0 - - - - SSE 13 19 7 10 1010.8 - 24.2
25/08:00pm 24.0 - - - - S 22 32 12 17 1010.3 - 23.6
25/07:45pm 24.1 - - - - SE 15 37 8 20 1010.4 - 23.0
25/07:30pm 24.0 - - - - SE 11 15 6 8 1008.4 - 23.0
25/07:00pm 24.0 - - - - NNW 9 13 5 7 1007.6 - 22.8
25/06:30pm 23.6 - - - - N 20 26 11 14 1008.3 - 22.6
25/06:00pm 23.2 - - - - ESE 19 30 10 16 1009.2 1007.5 19.8
25/05:39pm 23.6 - - - - NE 28 41 15 22 1009.2 - 15.6
25/05:30pm 24.6 - - - - NE 32 44 17 24 1007.1 - 15.4
25/05:02pm 28.1 30.1 26.9 93 0.9 E 30 48 16 26 1006.7 - 0.0
25/05:00pm 28.6 31.1 27.0 91 1.2 E 28 48 15 26 1006.7 - 0.0
25/04:58pm 29.0 31.8 27.0 89 1.4 E 26 48 14 26 1006.4 - 0.0
25/04:48pm 29.7 29.8 26.1 81 2.6 NNE 37 57 20 31 1005.4 - 0.0
25/04:46pm 30.5 29.5 25.6 75 3.5 NNE 41 57 22 31 1005.3 - 0.0
25/04:30pm 36.3 43.0 28.9 65 5.5 N 13 22 7 12 1004.5 - 0.0
25/04:00pm 35.9 42.3 28.5 65 5.5 N 13 20 7 11 1004.3 - 0.0
25/03:30pm 36.5 44.5 29.6 67 5.2 N 9 17 5 9 1004.9 - 0.0
25/03:00pm 35.2 42.0 28.1 66 5.3 N 9 17 5 9 1005.3 1003.5 0.0
25/02:30pm 34.6 41.7 29.0 72 4.2 N 11 17 6 9 1006.2 - 0.0
25/02:00pm 34.5 42.1 30.1 78 3.3 N 13 20 7 11 1006.9 - 0.0
25/01:30pm 33.5 43.1 32.4 94 0.8 NNW 13 22 7 12 1007.4 - 0.0
25/01:00pm 32.8 41.4 31.7 94 0.8 N 15 19 8 10 1007.9 - 0.0
25/12:30pm 32.2 41.0 32.0 99 0.2 N 15 22 8 12 1008.5 - 0.0
25/12:00pm 31.3 38.8 29.5 90 1.3 NNE 11 15 6 8 1009.1 1007.4 0.0
25/11:30am 29.9 - - - - N 9 19 5 10 1009.5 - 0.0
25/11:00am 28.9 - - - - N 4 11 2 6 1010.4 - 0.0
25/10:30am 27.9 - - - - NNE 6 11 3 6 1010.8 - 0.0
25/10:00am 27.5 - - - - N 7 11 4 6 1010.9 - 0.0
25/09:30am 27.0 - - - - NE 7 13 4 7 1010.9 - 0.0
25/09:00am 26.6 - - - - E 4 7 2 4 1010.8 1009.0 6.6
25/08:30am 26.4 - - - - N 7 9 4 5 1010.7 - 6.6
25/08:00am 26.2 - - - - CALM 0 4 0 2 1010.8 - 6.6
25/07:30am 25.8 - - - - WSW 4 9 2 5 1010.7 - 6.6
25/07:00am 25.1 - - - - W 7 9 4 5 1010.0 - 6.6
25/06:30am 24.9 - - - - W 7 13 4 7 1009.7 - 6.6
25/06:00am 24.9 - - - - WNW 7 11 4 6 1008.8 1007.1 6.6
25/05:30am 24.8 - - - - NW 7 11 4 6 1008.4 - 6.6
25/05:00am 24.8 - - - - N 11 13 6 7 1007.8 - 6.6
25/04:30am 24.8 - - - - NNE 20 26 11 14 1007.4 - 6.6
25/04:00am 24.8 - - - - SE 9 19 5 10 1007.5 - 6.0
25/03:30am 25.3 - - - - ENE 9 13 5 7 1007.1 - 5.4
25/03:00am 26.0 - - - - ENE 7 11 4 6 1007.1 1005.3 5.4
25/02:30am 26.2 - - - - CALM 0 0 0 0 1007.5 - 5.4
25/02:00am 26.3 - - - - SE 2 6 1 3 1007.9 - 5.4
25/01:30am 26.2 - - - - SW 9 15 5 8 1008.1 - 5.4
25/01:00am 26.1 - - - - S 9 13 5 7 1008.6 - 5.4
25/12:30am 26.2 - - - - WSW 9 13 5 7 1008.6 - 5.4
25/12:00am 26.4 - - - - NE 7 9 4 5 1009.0 1007.3 5.4
 
Date/Time
CST
Temp
°C
App
Temp
°C
Dew
Point
Rel
Hum
%
Delta-T
°C
Wind Press
QNH
hPa
Press
MSL
hPa
Rain
since 9 am
mm
Dir
 
Spd
km/h
Gust
km/h
Spd
kts
Gust
kts
24/11:30pm 26.5 - - - - NNE 6 9 3 5 1009.4 - 5.4
24/11:00pm 26.5 - - - - NNE 2 7 1 4 1010.1 - 5.4
24/10:30pm 26.4 - - - - NE 7 13 4 7 1010.2 - 5.4
24/10:00pm 27.6 - - - - W 7 9 4 5 1010.0 - 5.4
24/09:30pm 27.9 - - - - SSW 9 13 5 7 1009.7 - 5.4
24/09:00pm 27.8 - - - - SW 9 13 5 7 1009.5 1007.8 5.4
24/08:30pm 27.4 - - - - S 2 6 1 3 1009.1 - 5.4
24/08:00pm 27.2 - - - - SSW 11 17 6 9 1008.8 - 5.4
24/07:30pm 27.4 - - - - NW 11 15 6 8 1007.5 - 5.4
24/07:00pm 27.8 - - - - CALM 0 2 0 1 1007.2 - 5.4
24/06:30pm 28.1 - - - - N 7 13 4 7 1007.2 - 5.4
24/06:00pm 28.1 - - - - NNW 13 17 7 9 1006.3 1004.5 5.4
24/05:30pm 28.2 - - - - WSW 11 15 6 8 1006.1 - 5.4
24/05:00pm 27.2 - - - - SSW 19 20 10 11 1006.6 - 5.4
24/04:30pm 27.0 - - - - WNW 15 22 8 12 1006.1 - 5.4
24/04:00pm 26.9 - - - - WNW 17 28 9 15 1006.0 - 5.4
24/03:30pm 25.6 - - - - NW 20 28 11 15 1006.4 - 5.4
24/03:00pm 25.0 - - - - SSW 11 26 6 14 1006.3 1004.5 5.2
24/02:42pm 24.6 - - - - NW 28 46 15 25 1006.6 - 4.2
24/02:30pm 24.1 - - - - NW 24 35 13 19 1007.3 - 4.2
24/02:00pm 27.5 - - - - NNE 30 46 16 25 1006.9 - 2.8
24/01:56pm 27.0 - - - - NNE 28 46 15 25 1006.9 - 2.8
24/01:30pm 27.6 - - - - E 26 41 14 22 1007.5 - 1.8
24/01:26pm 30.6 - - - - SSE 26 41 14 22 1007.6 - 0.4
24/01:00pm 35.8 46.2 34.1 91 1.3 SW 17 30 9 16 1007.8 - 0.0
24/12:30pm 35.4 - 35.8 - - SW 20 32 11 17 1008.3 - 0.0
24/12:00pm 34.4 44.6 34.2 99 0.2 SW 19 30 10 16 1009.7 1007.9 0.0
24/11:30am 33.8 40.8 30.3 82 2.6 WSW 17 26 9 14 1010.3 - 0.0
24/11:00am 34.3 42.4 31.6 86 2.1 WSW 17 30 9 16 1010.6 - 0.0
24/10:30am 35.0 42.8 32.3 86 2.1 WSW 22 32 12 17 1010.9 - 0.0
24/10:00am 33.4 42.1 32.7 96 0.5 W 19 28 10 15 1011.1 - 0.0
24/09:30am 33.0 41.0 32.1 95 0.7 W 20 30 11 16 1011.2 - 0.0
24/09:00am 32.5 40.1 31.4 94 0.8 W 19 24 10 13 1011.2 1009.4 0.0
24/08:30am 31.4 38.9 30.9 97 0.4 WNW 17 26 9 14 1010.9 - 0.0
24/08:00am 30.5 - 30.7 - - NW 19 28 10 15 1010.7 - 0.0
24/07:30am 29.7 - 30.2 - - NW 17 24 9 13 1010.7 - 0.0
24/07:00am 29.0 - 29.8 - - NW 13 20 7 11 1010.5 - 0.0
24/06:30am 28.5 - 29.5 - - NW 17 24 9 13 1009.8 - 0.0
24/06:00am 28.7 - 29.2 - - NW 17 22 9 12 1009.8 1008.0 0.0
24/05:30am 29.2 35.3 28.7 97 0.4 NW 15 20 8 11 1009.5 - 0.0
24/05:00am 29.6 35.8 28.3 93 1.0 NW 13 19 7 10 1009.1 - 0.0
24/04:30am 30.3 37.4 29.0 93 1.0 NNW 11 15 6 8 1008.9 - 0.0
24/04:00am 31.2 38.1 29.2 89 1.5 N 13 20 7 11 1008.8 - 0.0
24/03:30am 31.3 37.4 29.1 88 1.6 N 17 20 9 11 1008.6 - 0.0
24/03:00am 31.0 38.9 29.0 89 1.5 WSW 7 7 4 4 1008.1 1006.3 0.0
24/02:30am 31.6 39.3 28.8 85 2.1 W 7 11 4 6 1008.3 - 0.0
24/02:00am 31.7 39.8 29.3 87 1.8 WSW 7 11 4 6 1008.2 - 0.0
24/01:30am 32.0 40.4 28.9 84 2.3 WNW 4 7 2 4 1008.4 - 0.0
24/01:00am 31.9 39.9 29.1 85 2.1 WSW 7 11 4 6 1008.4 - 0.0
24/12:30am 32.0 40.2 29.2 85 2.1 SSW 6 9 3 5 1008.9 - 0.0
24/12:00am 32.4 39.7 28.7 81 2.7 W 9 17 5 9 1008.9 1007.2 0.0
 
Date/Time
CST
Temp
°C
App
Temp
°C
Dew
Point
Rel
Hum
%
Delta-T
°C
Wind Press
QNH
hPa
Press
MSL
hPa
Rain
since 9 am
mm
Dir
 
Spd
km/h
Gust
km/h
Spd
kts
Gust
kts
23/11:30pm 31.9 40.6 29.3 86 1.9 SSW 4 6 2 3 1008.9 - 0.0
23/11:00pm 32.0 39.4 28.3 81 2.7 SW 7 9 4 5 1008.9 - 0.0
23/10:30pm 31.8 40.4 29.2 86 1.9 WSW 4 9 2 5 1008.9 - 0.0
23/10:00pm 33.0 40.8 28.9 79 3.0 WNW 7 13 4 7 1008.7 - 0.0
23/09:30pm 33.2 43.8 30.7 87 1.9 CALM 0 0 0 0 1008.6 - 0.0
23/09:00pm 34.0 44.3 30.3 81 2.8 CALM 0 0 0 0 1008.3 1006.6 0.0
23/08:30pm 33.8 43.9 30.1 81 2.8 CALM 0 0 0 0 1008.0 - 0.0
23/08:00pm 34.3 42.7 29.7 77 3.5 ESE 7 9 4 5 1007.5 - 0.0
23/07:30pm 34.7 44.0 30.1 77 3.5 S 4 9 2 5 1007.1 - 0.0
23/07:00pm 35.6 46.8 31.4 79 3.2 CALM 0 0 0 0 1006.7 - 0.0
23/06:30pm 36.7 47.6 32.0 77 3.6 SSW 4 7 2 4 1006.4 - 0.0
23/06:00pm 38.1 49.6 32.2 72 4.6 SSW 2 9 1 5 1006.1 1004.3 0.0
23/05:30pm 39.1 49.6 32.6 70 5.1 NE 9 13 5 7 1005.8 - 0.0
23/05:00pm 38.8 50.6 32.1 69 5.2 CALM 0 0 0 0 1005.7 - 0.0
23/04:30pm 39.2 49.4 32.2 68 5.4 WSW 9 15 5 8 1005.7 - 0.0
23/04:00pm 38.7 47.9 31.5 67 5.5 N 11 15 6 8 1006.1 - 0.0
23/03:30pm 38.9 48.2 31.6 66 5.6 E 11 22 6 12 1006.6 - 0.0
23/03:00pm 38.6 47.0 30.6 64 6.1 NE 11 19 6 10 1006.9 1005.1 0.0
23/02:30pm 38.9 47.0 31.6 66 5.6 N 17 30 9 16 1007.5 - 0.0
23/02:00pm 38.5 46.6 30.2 63 6.3 NE 11 20 6 11 1008.2 - 0.0

Other Formats:

Comma delimited format used in spreadsheet applications
http://www.bom.gov.au/fwo/IDD60801/IDD60801.94225.axf

JavaScript Object Notation format (JSON) in row-major order
http://www.bom.gov.au/fwo/IDD60801/IDD60801.94225.json